TAF EHSA
METAR EHSA
EHSA 090855Z AUTO 25017KT 9999 ///////// 08/04 Q1000 W10/H14=
EHSA 090825Z AUTO 25020KT 9999 ///////// 08/04 Q1000 W10/H14=
EHSA 090755Z AUTO 26017KT 9999 ///////// 08/04 Q1000 W10/H16=
EHSA 090725Z AUTO 25019KT 9999 ///////// 08/04 Q1000 W11/H16=
EHSA 090655Z AUTO 24021KT 9999 ///////// 08/04 Q1000 W10/H16=
WC EHSA
WS EHSA
WV EHSA